createdAt,value
2023-04-13T00:05:01.130Z,97456.80
2023-04-13T00:15:07.707Z,97448.39
2023-04-13T00:25:16.158Z,97447.11
2023-04-13T00:35:23.046Z,97441.45
2023-04-13T00:45:30.876Z,97439.52
2023-04-13T00:55:39.607Z,97439.00
2023-04-13T01:05:50.736Z,97440.24
2023-04-13T01:16:01.058Z,97438.27
2023-04-13T01:26:09.811Z,97441.14
2023-04-13T01:36:17.969Z,97440.22
2023-04-13T01:46:30.697Z,97438.94
2023-04-13T01:56:37.840Z,97436.01
2023-04-13T02:06:44.927Z,97426.46
2023-04-13T02:16:52.559Z,97426.61
2023-04-13T02:26:59.669Z,97430.59
2023-04-13T02:37:06.501Z,97431.67
2023-04-13T02:47:13.603Z,97421.73
2023-04-13T02:57:20.502Z,97407.21
2023-04-13T03:07:27.553Z,97411.14
2023-04-13T03:17:34.724Z,97420.74
2023-04-13T03:27:42.112Z,97420.77
2023-04-13T03:37:49.059Z,97415.77
2023-04-13T03:47:56.445Z,97413.12
2023-04-13T03:58:03.739Z,97403.42
2023-04-13T04:08:10.633Z,97394.15
2023-04-13T04:18:17.681Z,97404.02
2023-04-13T04:28:24.694Z,97420.27
2023-04-13T04:38:33.078Z,97424.22
2023-04-13T04:48:40.182Z,97422.99
2023-04-13T04:58:46.710Z,97423.88
2023-04-13T05:08:54.148Z,97420.49
2023-04-13T05:19:01.310Z,97419.39
2023-04-13T05:29:09.562Z,97418.38
2023-04-13T05:39:16.416Z,97415.65
2023-04-13T05:49:23.482Z,97423.99
2023-04-13T05:59:31.196Z,97427.73
2023-04-13T06:09:38.663Z,97425.89
2023-04-13T06:19:46.180Z,97429.92
2023-04-13T06:29:53.589Z,97439.78
2023-04-13T06:39:59.480Z,97445.39
2023-04-13T06:50:06.615Z,97443.96
2023-04-13T07:00:29.025Z,97442.20
2023-04-13T07:10:36.911Z,97441.69
2023-04-13T07:20:44.634Z,97433.31
2023-04-13T07:30:51.712Z,97441.33
2023-04-13T07:40:58.727Z,97443.75
2023-04-13T07:51:04.652Z,97443.37
2023-04-13T08:01:11.595Z,97438.73
2023-04-13T08:11:19.578Z,97442.06
2023-04-13T08:21:27.026Z,97432.38
2023-04-13T08:31:34.214Z,97431.58
2023-04-13T08:41:45.543Z,97431.89
2023-04-13T08:51:52.791Z,97436.41
2023-04-13T09:02:01.287Z,97431.77
2023-04-13T09:12:07.386Z,97427.20
2023-04-13T09:22:17.485Z,97426.61
2023-04-13T09:32:22.915Z,97428.16
2023-04-13T09:42:30.122Z,97435.84
2023-04-13T09:52:37.180Z,97435.70
2023-04-13T10:02:44.524Z,97445.00
2023-04-13T10:12:53.769Z,97443.96
2023-04-13T10:23:01.459Z,97440.23
2023-04-13T10:33:05.568Z,97430.81
2023-04-13T10:43:33.126Z,97435.85
2023-04-13T10:53:40.319Z,97438.80
2023-04-13T11:04:00.753Z,97432.06
2023-04-13T11:14:19.265Z,97431.39
2023-04-13T11:24:33.968Z,97434.91
2023-04-13T11:34:39.991Z,97435.14
2023-04-13T11:44:47.110Z,97435.91
2023-04-13T11:54:54.360Z,97442.56
2023-04-13T12:05:00.636Z,97434.98
2023-04-13T12:15:22.907Z,97431.07
2023-04-13T12:25:35.858Z,97431.25
2023-04-13T12:35:43.559Z,97427.77
2023-04-13T12:55:56.213Z,97421.79
2023-04-13T13:06:03.248Z,97434.20
2023-04-13T13:16:09.427Z,97437.65
2023-04-13T13:36:26.499Z,97439.61
2023-04-13T13:46:33.710Z,97437.75
2023-04-13T13:56:41.086Z,97443.04
2023-04-13T14:06:49.729Z,97444.95
2023-04-13T14:16:57.209Z,97454.33
2023-04-13T14:27:04.460Z,97458.13
2023-04-13T14:37:10.832Z,97461.66
2023-04-13T14:47:18.245Z,97467.20
2023-04-13T14:57:25.492Z,97478.19
2023-04-13T15:07:32.516Z,97486.17
2023-04-13T15:17:39.884Z,97496.20
2023-04-13T15:27:49.615Z,97505.59
2023-04-13T15:37:57.089Z,97518.95
2023-04-13T15:48:04.538Z,97524.52
2023-04-13T15:58:14.514Z,97532.95
2023-04-13T16:08:20.787Z,97538.11
2023-04-13T16:18:28.946Z,97552.44
2023-04-13T16:28:37.455Z,97568.16
2023-04-13T16:38:44.683Z,97577.29
2023-04-13T16:48:52.177Z,97589.12
2023-04-13T16:58:59.659Z,97600.80
2023-04-13T17:09:07.437Z,97614.38
2023-04-13T17:19:15.796Z,97632.66
2023-04-13T17:29:22.881Z,97647.98
2023-04-13T17:39:29.333Z,97661.66
2023-04-13T17:49:35.652Z,97668.48
2023-04-13T17:59:43.283Z,97680.61
2023-04-13T18:09:51.099Z,97691.02
2023-04-13T18:19:58.443Z,97703.67
2023-04-13T18:30:03.443Z,97726.45
2023-04-13T18:40:12.439Z,97731.45
2023-04-13T18:50:19.540Z,97736.02
2023-04-13T19:00:25.536Z,97738.34
2023-04-13T19:10:31.609Z,97744.95
2023-04-13T19:20:38.233Z,97747.02
2023-04-13T19:30:44.635Z,97749.30
2023-04-13T19:40:51.801Z,97754.45
2023-04-13T19:50:59.037Z,97752.46
2023-04-13T20:01:07.974Z,97753.09
2023-04-13T20:11:15.242Z,97741.98
2023-04-13T20:21:23.306Z,97734.86
2023-04-13T20:31:32.256Z,97730.65
2023-04-13T20:41:39.232Z,97729.32
2023-04-13T20:51:47.197Z,97729.66
2023-04-13T21:01:54.709Z,97735.05
2023-04-13T21:12:02.778Z,97737.19
2023-04-13T21:22:09.695Z,97739.40
2023-04-13T21:32:17.112Z,97747.49
2023-04-13T21:42:24.657Z,97736.00
2023-04-13T21:52:31.114Z,97729.09
2023-04-13T22:02:37.164Z,97726.97
2023-04-13T22:12:44.558Z,97716.52
2023-04-13T22:22:51.527Z,97710.16
2023-04-13T22:32:58.938Z,97714.36
2023-04-13T22:43:04.997Z,97714.14
2023-04-13T22:53:12.164Z,97713.76
2023-04-13T23:03:18.410Z,97709.58
2023-04-13T23:13:24.818Z,97697.16
2023-04-13T23:23:31.915Z,97686.45
2023-04-13T23:33:39.110Z,97674.84
2023-04-13T23:43:46.832Z,97676.53
2023-04-13T23:53:53.772Z,97669.79
